Back to Top

Language: 

My Weather Underground Personal Weather Station Historical Data with Graphs...

Delerius Weather Station Historical Data
Daily Summary for June 13, 2017 Units:  English    Metric   Both
« Previous Day
Next Day »
Daily Weekly Monthly Yearly Custom
  High: Low: Average:
Temperature: 71.2 °F 55.0 °F 61.9 °F
Dew Point: 57.4 °F 51.0 °F 54.2 °F
Humidity: 88 % 58 % 77 %
Wind Speed: 10.0 mph 0.0 mph 4.8 mph
Wind Gust: 16.0 mph - -
Wind:- - WSW
Pressure: 30.07 in 30.03 in -
Precipitation: 0.00 in    
Historical Graphs
 
 
Tabular Data for June 13, 2017
Time Temperature Dew Point Pressure Wind Wind Speed Wind Gust Humidity Rainfall Rate (Hourly) solar Conditions
00:03 56.1 °F 51.0 °F 30.03 in West 7.0 mph 11.0 mph 83 % 0.00 in 0 W/m2
00:08 56.1 °F 51.0 °F 30.03 in West 6.0 mph 11.0 mph 83 % 0.00 in 0 W/m2
00:13 56.3 °F 51.2 °F 30.04 in West 6.0 mph 9.0 mph 83 % 0.00 in 0 W/m2
00:18 56.1 °F 51.0 °F 30.04 in West 5.0 mph 9.0 mph 83 % 0.00 in 0 W/m2
00:23 56.1 °F 51.0 °F 30.04 in WNW 3.0 mph 9.0 mph 83 % 0.00 in 0 W/m2
00:28 56.1 °F 51.0 °F 30.03 in WNW 3.0 mph 6.0 mph 83 % 0.00 in 0 W/m2
00:33 56.1 °F 51.0 °F 30.03 in West 4.0 mph 8.0 mph 83 % 0.00 in 0 W/m2
00:38 56.1 °F 51.4 °F 30.03 in West 5.0 mph 8.0 mph 84 % 0.00 in 0 W/m2
00:43 55.9 °F 51.2 °F 30.03 in West 5.0 mph 9.0 mph 84 % 0.00 in 0 W/m2
00:48 55.9 °F 51.2 °F 30.03 in West 6.0 mph 9.0 mph 84 % 0.00 in 0 W/m2
00:53 55.9 °F 51.2 °F 30.03 in West 6.0 mph 10.0 mph 84 % 0.00 in 0 W/m2
00:58 55.9 °F 51.5 °F 30.03 in West 7.0 mph 11.0 mph 85 % 0.00 in 0 W/m2
01:03 55.9 °F 51.5 °F 30.03 in West 6.0 mph 11.0 mph 85 % 0.00 in 0 W/m2
01:08 55.8 °F 51.3 °F 30.03 in West 5.0 mph 10.0 mph 85 % 0.00 in 0 W/m2
01:13 55.9 °F 51.5 °F 30.03 in West 4.0 mph 10.0 mph 85 % 0.00 in 0 W/m2
01:15 55.9 °F 51.5 °F 30.03 in West 4.0 mph 10.0 mph 85 % 0.00 in 0 W/m2
01:20 55.9 °F 51.5 °F 30.04 in WSW 3.0 mph 10.0 mph 85 % 0.00 in 0 W/m2
01:25 55.8 °F 51.3 °F 30.03 in West 3.0 mph 6.0 mph 85 % 0.00 in 0 W/m2
01:30 55.8 °F 51.3 °F 30.03 in West 2.0 mph 5.0 mph 85 % 0.00 in 0 W/m2
01:35 55.8 °F 51.3 °F 30.03 in West 4.0 mph 10.0 mph 85 % 0.00 in 0 W/m2
01:40 55.8 °F 51.3 °F 30.03 in West 6.0 mph 10.0 mph 85 % 0.00 in 0 W/m2
01:45 55.8 °F 51.3 °F 30.04 in West 6.0 mph 10.0 mph 85 % 0.00 in 0 W/m2
01:50 55.8 °F 51.3 °F 30.03 in West 7.0 mph 10.0 mph 85 % 0.00 in 0 W/m2
01:55 55.8 °F 51.6 °F 30.04 in West 6.0 mph 11.0 mph 86 % 0.00 in 0 W/m2
02:00 55.8 °F 51.3 °F 30.04 in West 6.0 mph 11.0 mph 85 % 0.00 in 0 W/m2
02:05 55.8 °F 51.6 °F 30.04 in West 6.0 mph 11.0 mph 86 % 0.00 in 0 W/m2
02:10 55.8 °F 51.6 °F 30.04 in West 7.0 mph 11.0 mph 86 % 0.00 in 0 W/m2
02:15 55.8 °F 51.6 °F 30.04 in West 7.0 mph 11.0 mph 86 % 0.00 in 0 W/m2
02:20 55.8 °F 51.6 °F 30.04 in West 7.0 mph 11.0 mph 86 % 0.00 in 0 W/m2
02:25 55.8 °F 51.6 °F 30.04 in West 7.0 mph 11.0 mph 86 % 0.00 in 0 W/m2
02:30 55.8 °F 51.6 °F 30.04 in West 6.0 mph 10.0 mph 86 % 0.00 in 0 W/m2
02:35 55.8 °F 51.6 °F 30.04 in West 5.0 mph 10.0 mph 86 % 0.00 in 0 W/m2
02:40 55.8 °F 51.6 °F 30.04 in West 6.0 mph 10.0 mph 86 % 0.00 in 0 W/m2
02:45 55.8 °F 51.6 °F 30.04 in West 6.0 mph 9.0 mph 86 % 0.00 in 0 W/m2
02:50 55.8 °F 51.6 °F 30.04 in West 5.0 mph 9.0 mph 86 % 0.00 in 0 W/m2
02:55 55.8 °F 51.6 °F 30.04 in West 5.0 mph 9.0 mph 86 % 0.00 in 0 W/m2
03:00 55.8 °F 51.6 °F 30.04 in West 3.0 mph 8.0 mph 86 % 0.00 in 0 W/m2
03:06 55.6 °F 51.5 °F 30.04 in West 4.0 mph 9.0 mph 86 % 0.00 in 0 W/m2
03:11 55.6 °F 51.8 °F 30.04 in West 5.0 mph 9.0 mph 87 % 0.00 in 0 W/m2
03:16 55.6 °F 51.8 °F 30.04 in West 4.0 mph 9.0 mph 87 % 0.00 in 0 W/m2
03:21 55.6 °F 51.8 °F 30.04 in West 4.0 mph 7.0 mph 87 % 0.00 in 0 W/m2
03:26 55.4 °F 51.6 °F 30.04 in West 3.0 mph 7.0 mph 87 % 0.00 in 0 W/m2
03:31 55.2 °F 51.4 °F 30.04 in West 3.0 mph 8.0 mph 87 % 0.00 in 0 W/m2
03:36 55.2 °F 51.4 °F 30.04 in West 3.0 mph 8.0 mph 87 % 0.00 in 0 W/m2
03:41 55.0 °F 51.2 °F 30.04 in West 3.0 mph 7.0 mph 87 % 0.00 in 0 W/m2
03:46 55.0 °F 51.2 °F 30.04 in West 4.0 mph 7.0 mph 87 % 0.00 in 0 W/m2
03:51 55.0 °F 51.5 °F 30.04 in West 4.0 mph 7.0 mph 88 % 0.00 in 0 W/m2
03:56 55.0 °F 51.5 °F 30.05 in West 5.0 mph 7.0 mph 88 % 0.00 in 0 W/m2
04:01 55.0 °F 51.5 °F 30.05 in West 4.0 mph 7.0 mph 88 % 0.00 in 0 W/m2
04:06 55.0 °F 51.5 °F 30.05 in West 4.0 mph 7.0 mph 88 % 0.00 in 0 W/m2
04:11 55.0 °F 51.5 °F 30.05 in WSW 4.0 mph 7.0 mph 88 % 0.00 in 0 W/m2
04:16 55.0 °F 51.5 °F 30.05 in WSW 4.0 mph 7.0 mph 88 % 0.00 in 0 W/m2
04:21 55.0 °F 51.5 °F 30.05 in WSW 4.0 mph 7.0 mph 88 % 0.00 in 0 W/m2
04:26 55.2 °F 51.7 °F 30.05 in West 2.0 mph 6.0 mph 88 % 0.00 in 0 W/m2
04:31 55.2 °F 51.7 °F 30.05 in West 2.0 mph 6.0 mph 88 % 0.00 in 5 W/m2
04:36 55.2 °F 51.7 °F 30.05 in West 2.0 mph 6.0 mph 88 % 0.00 in 7 W/m2
04:41 55.2 °F 51.7 °F 30.05 in WNW 1.0 mph 5.0 mph 88 % 0.00 in 5 W/m2
04:46 55.2 °F 51.7 °F 30.05 in Calm   3.0 mph 88 % 0.00 in 7 W/m2
04:51 55.2 °F 51.7 °F 30.05 in Calm   1.0 mph 88 % 0.00 in 11 W/m2
04:56 55.0 °F 51.5 °F 30.05 in Calm   4.0 mph 88 % 0.00 in 12 W/m2
05:01 55.0 °F 51.5 °F 30.05 in Calm   4.0 mph 88 % 0.00 in 16 W/m2
05:06 55.0 °F 51.5 °F 30.05 in WNW 1.0 mph 5.0 mph 88 % 0.00 in 21 W/m2
05:11 55.0 °F 51.5 °F 30.05 in WNW 2.0 mph 5.0 mph 88 % 0.00 in 19 W/m2
05:16 55.2 °F 51.7 °F 30.05 in WNW 2.0 mph 6.0 mph 88 % 0.00 in 19 W/m2
05:21 55.2 °F 51.7 °F 30.05 in WNW 3.0 mph 6.0 mph 88 % 0.00 in 21 W/m2
05:27 55.2 °F 51.7 °F 30.06 in WNW 2.0 mph 6.0 mph 88 % 0.00 in 19 W/m2
05:32 55.2 °F 51.4 °F 30.06 in WNW 3.0 mph 7.0 mph 87 % 0.00 in 21 W/m2
05:37 55.2 °F 51.4 °F 30.06 in WSW 3.0 mph 7.0 mph 87 % 0.00 in 28 W/m2
05:42 55.4 °F 51.6 °F 30.06 in WSW 2.0 mph 5.0 mph 87 % 0.00 in 35 W/m2
05:47 55.4 °F 51.6 °F 30.06 in WSW 2.0 mph 5.0 mph 87 % 0.00 in 30 W/m2
05:52 55.4 °F 51.6 °F 30.05 in WSW 2.0 mph 5.0 mph 87 % 0.00 in 33 W/m2
05:53 55.4 °F 51.6 °F 30.05 in WSW 2.0 mph 5.0 mph 87 % 0.00 in 35 W/m2
05:58 55.6 °F 51.8 °F 30.05 in WSW 2.0 mph 5.0 mph 87 % 0.00 in 44 W/m2
06:03 55.6 °F 51.8 °F 30.05 in WSW 2.0 mph 5.0 mph 87 % 0.00 in 49 W/m2
06:05 55.6 °F 51.8 °F 30.05 in WSW 2.0 mph 5.0 mph 87 % 0.00 in 51 W/m2
06:10 55.6 °F 51.8 °F 30.05 in WSW 1.0 mph 4.0 mph 87 % 0.00 in 44 W/m2
06:15 55.8 °F 51.9 °F 30.05 in WSW 1.0 mph 4.0 mph 87 % 0.00 in 44 W/m2
06:20 55.8 °F 51.9 °F 30.05 in Calm   4.0 mph 87 % 0.00 in 49 W/m2
06:25 55.9 °F 52.1 °F 30.05 in Calm   2.0 mph 87 % 0.00 in 54 W/m2
06:30 55.9 °F 52.1 °F 30.05 in Calm   2.0 mph 87 % 0.00 in 60 W/m2
06:35 55.9 °F 52.1 °F 30.05 in Calm     87 % 0.00 in 62 W/m2
06:40 56.1 °F 52.3 °F 30.05 in Calm   2.0 mph 87 % 0.00 in 67 W/m2
06:45 56.3 °F 52.5 °F 30.05 in SW 2.0 mph 7.0 mph 87 % 0.00 in 95 W/m2
06:50 56.5 °F 52.7 °F 30.05 in SW 3.0 mph 7.0 mph 87 % 0.00 in 79 W/m2
06:55 56.7 °F 52.8 °F 30.05 in SW 2.0 mph 7.0 mph 87 % 0.00 in 49 W/m2
07:00 56.7 °F 52.8 °F 30.05 in WSW 2.0 mph 5.0 mph 87 % 0.00 in 58 W/m2
07:11 56.8 °F 53.3 °F 30.05 in WSW 2.0 mph 6.0 mph 88 % 0.00 in 107 W/m2
07:16 56.8 °F 53.3 °F 30.06 in WSW 2.0 mph 6.0 mph 88 % 0.00 in 93 W/m2
07:21 56.8 °F 53.3 °F 30.06 in WSW 2.0 mph 6.0 mph 88 % 0.00 in 79 W/m2
07:26 57.0 °F 53.5 °F 30.06 in WSW 2.0 mph 6.0 mph 88 % 0.00 in 93 W/m2
07:31 57.0 °F 53.5 °F 30.06 in WSW 4.0 mph 7.0 mph 88 % 0.00 in 95 W/m2
07:36 57.0 °F 53.5 °F 30.06 in WSW 5.0 mph 8.0 mph 88 % 0.00 in 116 W/m2
07:41 57.0 °F 53.5 °F 30.06 in WSW 5.0 mph 8.0 mph 88 % 0.00 in 118 W/m2
07:46 57.2 °F 53.7 °F 30.06 in WSW 4.0 mph 8.0 mph 88 % 0.00 in 149 W/m2
07:51 57.4 °F 53.9 °F 30.06 in WSW 4.0 mph 9.0 mph 88 % 0.00 in 160 W/m2
07:56 57.6 °F 53.7 °F 30.06 in WSW 4.0 mph 9.0 mph 87 % 0.00 in 171 W/m2
08:01 57.7 °F 53.9 °F 30.06 in WSW 4.0 mph 7.0 mph 87 % 0.00 in 197 W/m2
08:06 57.9 °F 54.1 °F 30.06 in WSW 5.0 mph 8.0 mph 87 % 0.00 in 221 W/m2
08:11 58.3 °F 54.1 °F 30.06 in West 6.0 mph 12.0 mph 86 % 0.00 in 230 W/m2
08:16 58.5 °F 54.0 °F 30.06 in West 7.0 mph 12.0 mph 85 % 0.00 in 227 W/m2
08:21 58.8 °F 54.0 °F 30.06 in West 7.0 mph 12.0 mph 84 % 0.00 in 237 W/m2
08:26 58.8 °F 53.7 °F 30.06 in WSW 7.0 mph 11.0 mph 83 % 0.00 in 241 W/m2
08:31 59.0 °F 53.8 °F 30.06 in WSW 7.0 mph 15.0 mph 83 % 0.00 in 241 W/m2
08:36 59.2 °F 53.7 °F 30.06 in WSW 7.0 mph 15.0 mph 82 % 0.00 in 281 W/m2
08:41 59.4 °F 53.9 °F 30.06 in WSW 8.0 mph 14.0 mph 82 % 0.00 in 392 W/m2
08:46 59.9 °F 54.4 °F 30.06 in West 7.0 mph 14.0 mph 82 % 0.00 in 272 W/m2
08:51 60.1 °F 54.2 °F 30.06 in West 7.0 mph 13.0 mph 81 % 0.00 in 353 W/m2
08:56 60.1 °F 54.2 °F 30.06 in WSW 8.0 mph 13.0 mph 81 % 0.00 in 304 W/m2
09:01 60.3 °F 54.4 °F 30.06 in WSW 7.0 mph 12.0 mph 81 % 0.00 in 334 W/m2
09:06 60.6 °F 54.8 °F 30.06 in WSW 6.0 mph 9.0 mph 81 % 0.00 in 318 W/m2
09:11 61.2 °F 54.9 °F 30.06 in West 6.0 mph 10.0 mph 80 % 0.00 in 251 W/m2
09:16 61.5 °F 54.9 °F 30.06 in West 7.0 mph 10.0 mph 79 % 0.00 in 302 W/m2
09:21 61.7 °F 55.1 °F 30.06 in WNW 7.0 mph 13.0 mph 79 % 0.00 in 306 W/m2
09:26 61.9 °F 54.9 °F 30.06 in West 8.0 mph 13.0 mph 78 % 0.00 in 362 W/m2
09:31 62.1 °F 55.1 °F 30.07 in West 8.0 mph 12.0 mph 78 % 0.00 in 443 W/m2
09:36 62.4 °F 55.1 °F 30.06 in West 7.0 mph 12.0 mph 77 % 0.00 in 427 W/m2
09:42 62.8 °F 54.7 °F 30.06 in West 8.0 mph 14.0 mph 75 % 0.00 in 388 W/m2
09:47 63.0 °F 54.9 °F 30.06 in West 8.0 mph 14.0 mph 75 % 0.00 in 445 W/m2
09:52 63.1 °F 54.7 °F 30.06 in West 8.0 mph 14.0 mph 74 % 0.00 in 413 W/m2
09:57 63.7 °F 54.9 °F 30.06 in West 8.0 mph 14.0 mph 73 % 0.00 in 571 W/m2
10:02 63.9 °F 55.0 °F 30.06 in West 8.0 mph 14.0 mph 73 % 0.00 in 729 W/m2
10:07 64.0 °F 54.8 °F 30.06 in West 8.0 mph 14.0 mph 72 % 0.00 in 432 W/m2
10:12 64.4 °F 55.2 °F 30.06 in WNW 8.0 mph 14.0 mph 72 % 0.00 in 360 W/m2
10:17 64.6 °F 55.0 °F 30.06 in WNW 7.0 mph 13.0 mph 71 % 0.00 in 380 W/m2
10:22 64.8 °F 55.1 °F 30.06 in WNW 7.0 mph 11.0 mph 71 % 0.00 in 415 W/m2
10:27 64.8 °F 55.1 °F 30.06 in West 7.0 mph 12.0 mph 71 % 0.00 in 468 W/m2
10:32 64.9 °F 55.3 °F 30.07 in West 6.0 mph 12.0 mph 71 % 0.00 in 297 W/m2
10:37 64.8 °F 54.7 °F 30.06 in West 6.0 mph 12.0 mph 70 % 0.00 in 330 W/m2
10:42 64.6 °F 55.0 °F 30.06 in West 6.0 mph 10.0 mph 71 % 0.00 in 218 W/m2
10:47 64.2 °F 54.6 °F 30.07 in West 6.0 mph 11.0 mph 71 % 0.00 in 209 W/m2
10:52 64.0 °F 54.8 °F 30.07 in West 6.0 mph 11.0 mph 72 % 0.00 in 285 W/m2
10:57 64.0 °F 54.8 °F 30.06 in West 7.0 mph 12.0 mph 72 % 0.00 in 292 W/m2
11:02 64.2 °F 55.0 °F 30.06 in West 5.0 mph 12.0 mph 72 % 0.00 in 227 W/m2
11:07 64.2 °F 54.6 °F 30.07 in West 6.0 mph 12.0 mph 71 % 0.00 in 239 W/m2
11:08 64.2 °F 54.6 °F 30.07 in West 6.0 mph 12.0 mph 71 % 0.00 in 244 W/m2
11:13 63.9 °F 54.3 °F 30.07 in West 8.0 mph 13.0 mph 71 % 0.00 in 380 W/m2
11:18 63.9 °F 54.3 °F 30.07 in West 7.0 mph 13.0 mph 71 % 0.00 in 207 W/m2
11:23 63.9 °F 54.3 °F 30.07 in WSW 6.0 mph 10.0 mph 71 % 0.00 in 206 W/m2
11:28 63.7 °F 54.1 °F 30.07 in WSW 6.0 mph 9.0 mph 71 % 0.00 in 269 W/m2
11:33 63.9 °F 54.7 °F 30.07 in West 6.0 mph 9.0 mph 72 % 0.00 in 316 W/m2
11:38 64.0 °F 54.8 °F 30.07 in West 5.0 mph 9.0 mph 72 % 0.00 in 262 W/m2
11:44 64.0 °F 54.8 °F 30.07 in WSW 5.0 mph 11.0 mph 72 % 0.00 in 288 W/m2
11:49 64.0 °F 54.4 °F 30.06 in SW 6.0 mph 11.0 mph 71 % 0.00 in 519 W/m2
11:59 64.6 °F 55.0 °F 30.06 in SSW 5.0 mph 9.0 mph 71 % 0.00 in 513 W/m2
12:04 64.9 °F 55.3 °F 30.06 in SW 4.0 mph 8.0 mph 71 % 0.00 in 383 W/m2
12:09 65.5 °F 55.8 °F 30.06 in WSW 3.0 mph 8.0 mph 71 % 0.00 in 454 W/m2
12:14 66.2 °F 55.7 °F 30.07 in West 3.0 mph 8.0 mph 69 % 0.00 in 541 W/m2
12:19 66.7 °F 55.4 °F 30.07 in West 4.0 mph 11.0 mph 67 % 0.00 in 548 W/m2
12:24 66.7 °F 55.0 °F 30.07 in WSW 6.0 mph 15.0 mph 66 % 0.00 in 438 W/m2
12:29 66.6 °F 55.7 °F 30.07 in SW 6.0 mph 15.0 mph 68 % 0.00 in 490 W/m2
12:34 66.6 °F 55.3 °F 30.07 in SSW 5.0 mph 10.0 mph 67 % 0.00 in 279 W/m2
12:39 66.4 °F 55.5 °F 30.07 in SSW 5.0 mph 10.0 mph 68 % 0.00 in 230 W/m2
12:44 66.0 °F 55.2 °F 30.07 in SSW 6.0 mph 10.0 mph 68 % 0.00 in 192 W/m2
12:49 65.8 °F 55.0 °F 30.07 in SW 5.0 mph 8.0 mph 68 % 0.00 in 156 W/m2
12:54 65.7 °F 55.2 °F 30.07 in SW 5.0 mph 8.0 mph 69 % 0.00 in 163 W/m2
12:59 65.3 °F 54.9 °F 30.07 in SW 4.0 mph 6.0 mph 69 % 0.00 in 234 W/m2
13:04 65.5 °F 55.8 °F 30.07 in SW 3.0 mph 6.0 mph 71 % 0.00 in 394 W/m2
13:09 65.5 °F 55.4 °F 30.07 in SW 3.0 mph 6.0 mph 70 % 0.00 in 338 W/m2
13:14 65.7 °F 55.6 °F 30.07 in SW 4.0 mph 6.0 mph 70 % 0.00 in 258 W/m2
13:19 65.7 °F 55.2 °F 30.06 in SSW 4.0 mph 6.0 mph 69 % 0.00 in 271 W/m2
13:24 65.8 °F 55.8 °F 30.06 in SSW 3.0 mph 8.0 mph 70 % 0.00 in 369 W/m2
13:29 66.2 °F 55.7 °F 30.06 in WSW 4.0 mph 11.0 mph 69 % 0.00 in 329 W/m2
13:34 66.6 °F 55.7 °F 30.06 in West 7.0 mph 12.0 mph 68 % 0.00 in 494 W/m2
13:39 66.7 °F 55.8 °F 30.06 in WSW 8.0 mph 12.0 mph 68 % 0.00 in 533 W/m2
13:44 66.9 °F 56.0 °F 30.06 in WSW 7.0 mph 12.0 mph 68 % 0.00 in 399 W/m2
13:49 67.3 °F 55.9 °F 30.06 in WSW 7.0 mph 12.0 mph 67 % 0.00 in 390 W/m2
13:54 67.3 °F 55.9 °F 30.06 in WSW 7.0 mph 14.0 mph 67 % 0.00 in 513 W/m2
13:59 67.5 °F 56.1 °F 30.06 in WSW 6.0 mph 14.0 mph 67 % 0.00 in 570 W/m2
14:04 67.6 °F 56.3 °F 30.06 in WSW 6.0 mph 11.0 mph 67 % 0.00 in 496 W/m2
14:09 68.2 °F 56.0 °F 30.06 in WSW 7.0 mph 13.0 mph 65 % 0.00 in 1158 W/m2
14:14 69.1 °F 56.8 °F 30.06 in West 9.0 mph 16.0 mph 65 % 0.00 in 1179 W/m2
14:19 70.2 °F 57.4 °F 30.06 in West 9.0 mph 16.0 mph 64 % 0.00 in 1148 W/m2
14:24 70.9 °F 56.8 °F 30.06 in West 9.0 mph 14.0 mph 61 % 0.00 in 1081 W/m2
14:29 71.1 °F 56.0 °F 30.06 in West 9.0 mph 14.0 mph 59 % 0.00 in 1088 W/m2
14:34 71.2 °F 55.7 °F 30.06 in WSW 8.0 mph 14.0 mph 58 % 0.00 in 1218 W/m2
14:39 71.1 °F 56.0 °F 30.06 in WSW 9.0 mph 13.0 mph 59 % 0.00 in 343 W/m2
14:44 70.7 °F 56.1 °F 30.06 in West 9.0 mph 13.0 mph 60 % 0.00 in 352 W/m2
14:49 70.2 °F 56.1 °F 30.06 in West 9.0 mph 13.0 mph 61 % 0.00 in 334 W/m2
14:54 70.2 °F 56.5 °F 30.06 in West 8.0 mph 13.0 mph 62 % 0.00 in 322 W/m2
14:59 70.0 °F 55.9 °F 30.06 in West 8.0 mph 15.0 mph 61 % 0.00 in 366 W/m2
15:04 69.6 °F 56.0 °F 30.06 in West 10.0 mph 15.0 mph 62 % 0.00 in 362 W/m2
15:09 69.4 °F 56.7 °F 30.06 in WNW 10.0 mph 15.0 mph 64 % 0.00 in 318 W/m2
15:14 69.1 °F 56.4 °F 30.06 in WNW 9.0 mph 15.0 mph 64 % 0.00 in 253 W/m2
15:19 68.7 °F 56.5 °F 30.06 in West 8.0 mph 12.0 mph 65 % 0.00 in 329 W/m2
15:25 68.5 °F 56.7 °F 30.06 in West 7.0 mph 13.0 mph 66 % 0.00 in 438 W/m2
15:30 68.4 °F 56.1 °F 30.06 in WSW 8.0 mph 14.0 mph 65 % 0.00 in 494 W/m2
15:35 68.0 °F 56.2 °F 30.07 in WSW 9.0 mph 15.0 mph 66 % 0.00 in 438 W/m2
15:40 68.4 °F 56.6 °F 30.06 in West 9.0 mph 15.0 mph 66 % 0.00 in 429 W/m2
15:45 68.7 °F 56.9 °F 30.06 in West 9.0 mph 15.0 mph 66 % 0.00 in 413 W/m2
15:50 68.9 °F 57.1 °F 30.06 in West 9.0 mph 15.0 mph 66 % 0.00 in 548 W/m2
15:55 68.9 °F 56.6 °F 30.06 in West 8.0 mph 12.0 mph 65 % 0.00 in 492 W/m2
16:00 69.1 °F 56.8 °F 30.06 in West 7.0 mph 12.0 mph 65 % 0.00 in 362 W/m2
16:05 69.1 °F 56.8 °F 30.07 in West 7.0 mph 11.0 mph 65 % 0.00 in 378 W/m2
16:10 68.7 °F 56.0 °F 30.07 in West 8.0 mph 12.0 mph 64 % 0.00 in 427 W/m2
16:15 68.9 °F 56.2 °F 30.07 in West 7.0 mph 12.0 mph 64 % 0.00 in 536 W/m2
16:20 69.3 °F 57.0 °F 30.07 in West 7.0 mph 12.0 mph 65 % 0.00 in 503 W/m2
16:25 69.6 °F 56.5 °F 30.07 in West 8.0 mph 13.0 mph 63 % 0.00 in 318 W/m2
16:30 69.4 °F 56.3 °F 30.06 in West 9.0 mph 13.0 mph 63 % 0.00 in 322 W/m2
16:35 69.3 °F 56.1 °F 30.06 in West 9.0 mph 16.0 mph 63 % 0.00 in 311 W/m2
16:40 68.9 °F 56.2 °F 30.07 in West 9.0 mph 16.0 mph 64 % 0.00 in 274 W/m2
16:45 68.5 °F 55.9 °F 30.06 in West 8.0 mph 13.0 mph 64 % 0.00 in 234 W/m2
16:46 68.5 °F 55.9 °F 30.06 in West 8.0 mph 13.0 mph 64 % 0.00 in 229 W/m2
16:51 68.4 °F 56.6 °F 30.06 in West 7.0 mph 12.0 mph 66 % 0.00 in 200 W/m2
16:56 68.4 °F 56.6 °F 30.07 in WSW 6.0 mph 10.0 mph 66 % 0.00 in 176 W/m2
17:01 68.2 °F 56.0 °F 30.06 in West 7.0 mph 11.0 mph 65 % 0.00 in 169 W/m2
17:06 67.8 °F 56.0 °F 30.06 in West 7.0 mph 11.0 mph 66 % 0.00 in 174 W/m2
17:11 67.8 °F 56.5 °F 30.06 in West 6.0 mph 11.0 mph 67 % 0.00 in 174 W/m2
17:16 67.8 °F 56.0 °F 30.06 in West 6.0 mph 10.0 mph 66 % 0.00 in 176 W/m2
17:21 67.8 °F 56.5 °F 30.06 in West 7.0 mph 11.0 mph 67 % 0.00 in 176 W/m2
17:26 67.6 °F 56.3 °F 30.06 in West 7.0 mph 11.0 mph 67 % 0.00 in 167 W/m2
17:31 67.6 °F 55.9 °F 30.06 in West 8.0 mph 14.0 mph 66 % 0.00 in 155 W/m2
17:36 67.5 °F 56.1 °F 30.07 in West 8.0 mph 14.0 mph 67 % 0.00 in 151 W/m2
17:41 67.3 °F 55.9 °F 30.06 in West 8.0 mph 13.0 mph 67 % 0.00 in 149 W/m2
17:46 67.1 °F 55.8 °F 30.06 in West 8.0 mph 13.0 mph 67 % 0.00 in 146 W/m2
17:51 66.9 °F 56.0 °F 30.06 in West 9.0 mph 14.0 mph 68 % 0.00 in 134 W/m2
17:56 66.7 °F 55.8 °F 30.06 in West 9.0 mph 14.0 mph 68 % 0.00 in 142 W/m2
18:01 66.6 °F 55.7 °F 30.06 in West 9.0 mph 13.0 mph 68 % 0.00 in 156 W/m2
18:06 66.4 °F 55.9 °F 30.06 in West 8.0 mph 13.0 mph 69 % 0.00 in 155 W/m2
18:11 66.4 °F 55.9 °F 30.06 in West 7.0 mph 12.0 mph 69 % 0.00 in 139 W/m2
18:16 66.4 °F 55.9 °F 30.06 in West 7.0 mph 12.0 mph 69 % 0.00 in 139 W/m2
18:21 66.4 °F 55.9 °F 30.06 in West 7.0 mph 11.0 mph 69 % 0.00 in 179 W/m2
18:26 66.6 °F 56.1 °F 30.06 in West 7.0 mph 10.0 mph 69 % 0.00 in 190 W/m2
18:31 66.6 °F 56.1 °F 30.06 in West 6.0 mph 9.0 mph 69 % 0.00 in 167 W/m2
18:37 66.7 °F 55.8 °F 30.06 in West 5.0 mph 8.0 mph 68 % 0.00 in 153 W/m2
18:42 66.7 °F 56.2 °F 30.06 in West 5.0 mph 9.0 mph 69 % 0.00 in 148 W/m2
18:47 66.7 °F 56.6 °F 30.06 in West 4.0 mph 9.0 mph 70 % 0.00 in 153 W/m2
18:52 66.9 °F 56.4 °F 30.06 in West 4.0 mph 9.0 mph 69 % 0.00 in 153 W/m2
18:57 66.9 °F 56.0 °F 30.06 in West 6.0 mph 10.0 mph 68 % 0.00 in 148 W/m2
19:02 66.7 °F 55.8 °F 30.06 in West 7.0 mph 10.0 mph 68 % 0.00 in 121 W/m2
19:07 66.7 °F 55.8 °F 30.06 in WSW 5.0 mph 9.0 mph 68 % 0.00 in 88 W/m2
19:12 66.7 °F 56.2 °F 30.06 in WSW 4.0 mph 8.0 mph 69 % 0.00 in 88 W/m2
19:17 66.6 °F 55.7 °F 30.06 in WSW 5.0 mph 8.0 mph 68 % 0.00 in 81 W/m2
19:22 66.4 °F 55.9 °F 30.06 in WSW 5.0 mph 8.0 mph 69 % 0.00 in 77 W/m2
19:27 66.4 °F 56.3 °F 30.06 in WSW 5.0 mph 8.0 mph 70 % 0.00 in 76 W/m2
19:32 66.4 °F 56.3 °F 30.06 in WSW 4.0 mph 7.0 mph 70 % 0.00 in 83 W/m2
19:37 66.2 °F 56.1 °F 30.06 in WSW 5.0 mph 8.0 mph 70 % 0.00 in 95 W/m2
19:38 66.2 °F 56.1 °F 30.05 in WSW 5.0 mph 8.0 mph 70 % 0.00 in 95 W/m2
19:43 66.0 °F 56.0 °F 30.05 in SW 6.0 mph 9.0 mph 70 % 0.00 in 83 W/m2
19:48 65.8 °F 56.2 °F 30.06 in SW 6.0 mph 9.0 mph 71 % 0.00 in 77 W/m2
19:53 65.7 °F 56.0 °F 30.06 in SW 6.0 mph 10.0 mph 71 % 0.00 in 70 W/m2
19:58 65.7 °F 55.6 °F 30.06 in SW 6.0 mph 10.0 mph 70 % 0.00 in 65 W/m2
20:03 65.5 °F 55.8 °F 30.06 in SW 7.0 mph 9.0 mph 71 % 0.00 in 58 W/m2
20:08 65.3 °F 55.7 °F 30.05 in SW 5.0 mph 9.0 mph 71 % 0.00 in 53 W/m2
20:13 65.1 °F 55.9 °F 30.05 in SW 4.0 mph 8.0 mph 72 % 0.00 in 49 W/m2
20:18 65.1 °F 55.9 °F 30.05 in SW 4.0 mph 7.0 mph 72 % 0.00 in 44 W/m2
20:23 64.9 °F 55.7 °F 30.05 in SW 4.0 mph 7.0 mph 72 % 0.00 in 39 W/m2
20:34 64.9 °F 56.1 °F 30.05 in SW 3.0 mph 7.0 mph 73 % 0.00 in 33 W/m2
20:39 64.8 °F 55.9 °F 30.06 in SW 3.0 mph 6.0 mph 73 % 0.00 in 25 W/m2
20:44 64.8 °F 56.3 °F 30.06 in SW 3.0 mph 5.0 mph 74 % 0.00 in 18 W/m2
20:49 64.6 °F 56.1 °F 30.06 in SW 3.0 mph 6.0 mph 74 % 0.00 in 16 W/m2
20:54 64.6 °F 56.1 °F 30.06 in SW 4.0 mph 7.0 mph 74 % 0.00 in 14 W/m2
20:59 64.6 °F 56.1 °F 30.06 in SW 4.0 mph 7.0 mph 74 % 0.00 in 14 W/m2
21:04 64.4 °F 55.9 °F 30.06 in SW 3.0 mph 7.0 mph 74 % 0.00 in 9 W/m2
21:09 64.2 °F 56.1 °F 30.06 in SW 3.0 mph 5.0 mph 75 % 0.00 in 7 W/m2
21:14 64.0 °F 56.0 °F 30.06 in SW 3.0 mph 6.0 mph 75 % 0.00 in 5 W/m2
21:19 64.0 °F 56.0 °F 30.06 in SW 3.0 mph 7.0 mph 75 % 0.00 in 0 W/m2
21:24 63.9 °F 56.1 °F 30.07 in WSW 3.0 mph 7.0 mph 76 % 0.00 in 0 W/m2
21:29 63.9 °F 56.1 °F 30.07 in WSW 3.0 mph 6.0 mph 76 % 0.00 in 0 W/m2
21:34 63.7 °F 56.0 °F 30.07 in WSW 2.0 mph 5.0 mph 76 % 0.00 in 0 W/m2
21:39 63.7 °F 56.0 °F 30.06 in WSW 2.0 mph 5.0 mph 76 % 0.00 in 0 W/m2
21:44 63.5 °F 55.8 °F 30.06 in WSW 2.0 mph 5.0 mph 76 % 0.00 in 0 W/m2
21:49 63.3 °F 55.6 °F 30.06 in WSW 2.0 mph 6.0 mph 76 % 0.00 in 0 W/m2
21:54 63.1 °F 55.8 °F 30.06 in WSW 2.0 mph 6.0 mph 77 % 0.00 in 0 W/m2
21:59 63.1 °F 55.8 °F 30.07 in SW 2.0 mph 5.0 mph 77 % 0.00 in 0 W/m2
22:04 63.0 °F 55.6 °F 30.06 in SW 2.0 mph 5.0 mph 77 % 0.00 in 0 W/m2
22:09 62.8 °F 55.5 °F 30.06 in SW 2.0 mph 5.0 mph 77 % 0.00 in 0 W/m2
22:10 62.8 °F 55.8 °F 30.06 in SW 1.0 mph 5.0 mph 78 % 0.00 in 0 W/m2
22:15 62.8 °F 55.8 °F 30.06 in SW 1.0 mph 5.0 mph 78 % 0.00 in 0 W/m2
22:20 62.6 °F 55.6 °F 30.06 in Calm     78 % 0.00 in 0 W/m2
22:26 62.4 °F 55.5 °F 30.06 in Calm     78 % 0.00 in 0 W/m2
22:31 62.2 °F 55.3 °F 30.06 in Calm     78 % 0.00 in 0 W/m2
22:36 62.1 °F 55.5 °F 30.06 in Calm   1.0 mph 79 % 0.00 in 0 W/m2
22:41 61.7 °F 55.1 °F 30.06 in Calm   1.0 mph 79 % 0.00 in 0 W/m2
22:51 61.2 °F 54.9 °F 30.06 in SW 1.0 mph 4.0 mph 80 % 0.00 in 0 W/m2
22:56 60.6 °F 54.8 °F 30.06 in Calm   4.0 mph 81 % 0.00 in 0 W/m2
23:01 60.4 °F 54.6 °F 30.06 in Calm   4.0 mph 81 % 0.00 in 0 W/m2
23:06 60.1 °F 54.6 °F 30.06 in WSW 1.0 mph 4.0 mph 82 % 0.00 in 0 W/m2
23:11 59.7 °F 54.2 °F 30.06 in WSW 1.0 mph 4.0 mph 82 % 0.00 in 0 W/m2
23:16 59.4 °F 53.9 °F 30.06 in Calm   2.0 mph 82 % 0.00 in 0 W/m2
23:21 59.2 °F 53.7 °F 30.06 in Calm     82 % 0.00 in 0 W/m2
23:26 59.0 °F 53.8 °F 30.06 in Calm     83 % 0.00 in 0 W/m2
23:28 58.8 °F 53.7 °F 30.06 in Calm     83 % 0.00 in 0 W/m2
23:33 58.5 °F 53.3 °F 30.06 in Calm     83 % 0.00 in 0 W/m2
23:38 58.3 °F 53.5 °F 30.06 in Calm     84 % 0.00 in 0 W/m2
23:43 58.1 °F 53.6 °F 30.06 in Calm     85 % 0.00 in 0 W/m2
23:48 57.9 °F 53.4 °F 30.06 in Calm     85 % 0.00 in 0 W/m2
23:53 57.7 °F 53.6 °F 30.06 in Calm     86 % 0.00 in 0 W/m2
23:58 57.6 °F 53.4 °F 30.06 in Calm     86 % 0.00 in 0 W/m2
Delerius-Weather
Compliments of Weather Underground - 2.25 mb

Data updates at regular intervals.